Time;durP1;ratioP1;P1;durP2;ratioP2;P2;SDS_P1;SDS_P2;PMS_P1;PMS_P2;Temp;Humidity;BMP_temperature;BMP_pressure;BME280_temperature;BME280_humidity;BME280_pressure;Samples;Min_cycle;Max_cycle;Signal;HPM_P1;HPM_P2
2023/02/02 00:01:11;;;;;;;4.07;0.80;;;;;;;;;;5089990;28;20016;-76
2023/02/02 00:03:37;;;;;;;6.75;1.58;;;;;;;;;;5090948;28;20047;-76
2023/02/02 00:06:03;;;;;;;5.85;0.88;;;;;;;;;;5089537;28;20028;-76
2023/02/02 00:08:28;;;;;;;4.87;0.93;;;;;;;;;;5095519;28;20027;-77
2023/02/02 00:10:53;;;;;;;2.55;0.95;;;;;;;;;;5094925;28;20024;-76
2023/02/02 00:13:18;;;;;;;4.30;1.25;;;;;;;;;;5093611;28;20569;-76
2023/02/02 00:15:44;;;;;;;4.15;0.90;;;;;;;;;;5093604;28;20024;-76
2023/02/02 00:18:09;;;;;;;6.00;0.97;;;;;;;;;;5095097;28;20024;-76
2023/02/02 00:20:34;;;;;;;9.70;1.65;;;;;;;;;;5094832;28;20056;-76
2023/02/02 00:22:59;;;;;;;2.78;0.98;;;;;;;;;;5095119;28;20035;-76
2023/02/02 00:25:25;;;;;;;6.15;1.30;;;;;;;;;;5078510;28;20165;-76
2023/02/02 00:27:50;;;;;;;2.13;0.93;;;;;;;;;;5082807;28;20047;-76
2023/02/02 00:30:15;;;;;;;5.47;0.98;;;;;;;;;;5094420;28;20015;-76
2023/02/02 00:32:41;;;;;;;14.27;2.10;;;;;;;;;;5094582;28;20016;-76
2023/02/02 00:35:07;;;;;;;3.63;0.87;;;;;;;;;;5094372;28;20016;-76
2023/02/02 00:37:32;;;;;;;5.68;1.00;;;;;;;;;;5094498;28;20112;-76
2023/02/02 00:39:58;;;;;;;2.63;1.00;;;;;;;;;;5094650;28;20031;-76
2023/02/02 00:42:23;;;;;;;3.85;1.58;;;;;;;;;;5086513;28;20028;-76
2023/02/02 00:47:32;;;;;;;3.28;0.90;;;;;;;;;;5090042;28;20035;-76
2023/02/02 00:49:57;;;;;;;4.97;1.08;;;;;;;;;;5087454;28;20112;-76
2023/02/02 00:52:22;;;;;;;4.85;0.82;;;;;;;;;;5089344;28;20470;-76
2023/02/02 00:54:47;;;;;;;6.55;0.75;;;;;;;;;;5093879;28;20070;-76
2023/02/02 00:57:13;;;;;;;2.90;0.85;;;;;;;;;;5087530;28;20135;-76
2023/02/02 00:59:38;;;;;;;8.90;1.38;;;;;;;;;;5094290;28;20012;-76
2023/02/02 01:02:03;;;;;;;2.42;0.60;;;;;;;;;;5093898;28;20028;-76
2023/02/02 01:04:29;;;;;;;2.65;0.98;;;;;;;;;;5093616;28;20608;-76
2023/02/02 01:06:54;;;;;;;3.92;1.20;;;;;;;;;;5093819;28;20028;-76
2023/02/02 01:09:19;;;;;;;6.60;1.08;;;;;;;;;;5079190;28;20416;-76
2023/02/02 01:11:44;;;;;;;7.75;0.80;;;;;;;;;;5093669;28;20370;-76
2023/02/02 01:14:10;;;;;;;5.15;1.00;;;;;;;;;;5093578;28;20049;-76
2023/02/02 01:16:35;;;;;;;3.83;0.80;;;;;;;;;;5092634;28;20024;-76
2023/02/02 01:19:00;;;;;;;2.95;1.13;;;;;;;;;;5093138;28;20675;-76
2023/02/02 01:21:25;;;;;;;4.68;0.77;;;;;;;;;;5092372;28;20309;-76
2023/02/02 01:23:50;;;;;;;4.68;0.85;;;;;;;;;;5092193;28;20115;-76
2023/02/02 01:26:16;;;;;;;9.63;1.58;;;;;;;;;;5089354;28;20024;-76
2023/02/02 01:28:41;;;;;;;6.75;1.27;;;;;;;;;;5089048;28;20052;-76
2023/02/02 01:31:09;;;;;;;4.68;1.13;;;;;;;;;;5093494;28;20015;-76
2023/02/02 01:33:35;;;;;;;2.35;0.88;;;;;;;;;;5093292;28;20027;-76
2023/02/02 01:36:02;;;;;;;3.47;1.00;;;;;;;;;;5093310;28;20096;-76
2023/02/02 01:38:27;;;;;;;6.13;1.13;;;;;;;;;;5093086;28;20039;-76
2023/02/02 01:40:54;;;;;;;2.53;0.80;;;;;;;;;;5091698;28;20058;-76
2023/02/02 01:43:20;;;;;;;3.03;0.73;;;;;;;;;;5093306;28;20043;-76
2023/02/02 01:45:46;;;;;;;6.72;0.70;;;;;;;;;;5066786;28;20028;-76
2023/02/02 01:48:11;;;;;;;1.73;0.60;;;;;;;;;;5091912;28;20164;-76
2023/02/02 01:50:36;;;;;;;4.47;0.70;;;;;;;;;;5093196;28;20064;-76
2023/02/02 01:53:03;;;;;;;5.00;1.07;;;;;;;;;;5093343;28;20016;-76
2023/02/02 01:55:30;;;;;;;5.88;1.08;;;;;;;;;;5092867;28;20034;-76
2023/02/02 01:58:03;;;;;;;3.42;0.70;;;;;;;;;;5078438;28;20020;-76
2023/02/02 02:00:28;;;;;;;7.80;0.80;;;;;;;;;;5092783;28;20008;-75
2023/02/02 02:02:59;;;;;;;6.07;1.10;;;;;;;;;;5092968;28;20347;-76
2023/02/02 02:05:27;;;;;;;3.63;0.90;;;;;;;;;;5084408;28;20479;-76
2023/02/02 02:07:55;;;;;;;5.30;0.85;;;;;;;;;;5092346;28;20093;-76
2023/02/02 02:10:20;;;;;;;1.77;0.90;;;;;;;;;;5092417;28;20036;-76
2023/02/02 02:12:48;;;;;;;6.00;1.15;;;;;;;;;;5092274;28;20463;-76
2023/02/02 02:17:57;;;;;;;6.53;1.07;;;;;;;;;;5092790;28;20028;-76
2023/02/02 02:26:38;;;;;;;1.58;0.73;;;;;;;;;;5073469;28;19927;-76
2023/02/02 02:29:31;;;;;;;5.43;0.90;;;;;;;;;;5078306;28;20031;-76
2023/02/02 02:31:59;;;;;;;2.10;0.70;;;;;;;;;;5076158;28;20483;-76
2023/02/02 02:34:32;;;;;;;6.53;1.10;;;;;;;;;;5092167;28;20309;-76
2023/02/02 02:37:04;;;;;;;6.20;1.40;;;;;;;;;;5092697;28;20032;-76
2023/02/02 02:39:42;;;;;;;7.83;1.40;;;;;;;;;;5092323;28;20156;-76
2023/02/02 02:42:11;;;;;;;8.83;1.20;;;;;;;;;;5092107;28;20509;-76
2023/02/02 02:44:37;;;;;;;11.70;1.63;;;;;;;;;;5076166;28;20032;-76
2023/02/02 02:47:02;;;;;;;1.55;0.93;;;;;;;;;;5085605;28;20016;-76
2023/02/02 02:49:27;;;;;;;4.82;0.80;;;;;;;;;;5092061;28;20423;-76
2023/02/02 02:51:53;;;;;;;4.67;1.47;;;;;;;;;;5072886;28;20033;-76
2023/02/02 02:54:39;;;;;;;2.90;0.80;;;;;;;;;;5091670;28;20031;-77
2023/02/02 02:57:16;;;;;;;2.80;0.90;;;;;;;;;;5086084;28;20024;-76
2023/02/02 02:59:44;;;;;;;6.85;2.13;;;;;;;;;;5071372;28;20139;-76
2023/02/02 03:02:27;;;;;;;2.60;0.80;;;;;;;;;;5084852;28;20024;-76
2023/02/02 03:04:55;;;;;;;4.35;1.10;;;;;;;;;;5081146;28;20085;-76
2023/02/02 03:07:22;;;;;;;2.40;0.77;;;;;;;;;;5091760;28;20042;-76
2023/02/02 03:09:49;;;;;;;3.58;1.33;;;;;;;;;;5091407;28;20020;-76
2023/02/02 03:12:15;;;;;;;3.95;1.00;;;;;;;;;;5073517;28;20013;-76
2023/02/02 03:14:41;;;;;;;4.00;0.98;;;;;;;;;;5071477;28;20506;-76
2023/02/02 03:17:06;;;;;;;5.55;1.60;;;;;;;;;;5086987;28;20028;-76
2023/02/02 03:19:32;;;;;;;7.17;2.03;;;;;;;;;;5090783;28;20028;-76
2023/02/02 03:21:57;;;;;;;3.72;0.82;;;;;;;;;;5091656;28;20427;-76
2023/02/02 03:24:22;;;;;;;3.60;0.90;;;;;;;;;;5072255;28;20032;-76
2023/02/02 03:26:47;;;;;;;2.75;0.85;;;;;;;;;;5082872;28;20040;-76
2023/02/02 03:29:13;;;;;;;2.40;0.63;;;;;;;;;;5073229;28;20036;-76
2023/02/02 03:31:38;;;;;;;4.53;1.02;;;;;;;;;;5069760;28;20078;-76
2023/02/02 03:34:03;;;;;;;3.07;0.90;;;;;;;;;;5084844;28;20031;-76
2023/02/02 03:36:29;;;;;;;3.85;0.95;;;;;;;;;;5091330;28;20397;-76
2023/02/02 03:38:54;;;;;;;1.42;0.65;;;;;;;;;;5091408;28;20429;-76
2023/02/02 03:41:19;;;;;;;3.90;1.02;;;;;;;;;;5091044;28;20028;-76
2023/02/02 03:43:44;;;;;;;9.52;1.33;;;;;;;;;;5086858;28;20035;-76
2023/02/02 03:46:09;;;;;;;3.10;0.75;;;;;;;;;;5063099;28;21795;-76
2023/02/02 03:48:36;;;;;;;2.43;0.63;;;;;;;;;;5091089;28;20020;-76
2023/02/02 03:51:08;;;;;;;5.23;0.70;;;;;;;;;;5089452;28;20062;-76
2023/02/02 03:53:33;;;;;;;4.55;1.08;;;;;;;;;;5091383;28;20083;-76
2023/02/02 03:55:59;;;;;;;5.37;0.90;;;;;;;;;;5091199;28;20125;-76
2023/02/02 03:58:24;;;;;;;6.37;0.97;;;;;;;;;;5089877;28;20344;-76
2023/02/02 04:00:49;;;;;;;4.47;1.00;;;;;;;;;;5091416;28;20020;-76
2023/02/02 04:03:14;;;;;;;6.30;1.57;;;;;;;;;;5073542;28;20028;-76
2023/02/02 04:05:40;;;;;;;6.33;0.83;;;;;;;;;;5077394;28;20035;-76
2023/02/02 04:08:05;;;;;;;5.77;1.10;;;;;;;;;;5090616;28;20048;-76
2023/02/02 04:10:30;;;;;;;3.33;0.87;;;;;;;;;;5089450;28;20020;-76
2023/02/02 04:12:55;;;;;;;5.80;0.83;;;;;;;;;;5091054;28;20017;-76
2023/02/02 04:15:21;;;;;;;5.70;0.70;;;;;;;;;;5090785;28;20363;-76
2023/02/02 04:17:46;;;;;;;5.97;1.10;;;;;;;;;;5090857;28;20020;-76
2023/02/02 04:20:11;;;;;;;2.40;0.93;;;;;;;;;;5090596;28;20502;-76
2023/02/02 04:22:36;;;;;;;1.53;0.60;;;;;;;;;;5080730;28;20032;-76
2023/02/02 04:25:02;;;;;;;4.20;0.70;;;;;;;;;;5084052;28;20111;-76
2023/02/02 04:27:30;;;;;;;2.87;0.80;;;;;;;;;;5090682;28;20023;-76
2023/02/02 04:29:55;;;;;;;6.63;1.20;;;;;;;;;;5089225;28;20032;-76
2023/02/02 04:32:20;;;;;;;3.47;1.03;;;;;;;;;;5090650;28;20012;-76
2023/02/02 04:34:45;;;;;;;5.97;0.80;;;;;;;;;;5090632;28;20066;-76
2023/02/02 04:37:11;;;;;;;2.07;0.63;;;;;;;;;;5090850;28;20351;-76
2023/02/02 04:39:36;;;;;;;5.88;1.08;;;;;;;;;;5090587;28;20531;-76
2023/02/02 04:42:01;;;;;;;5.17;0.83;;;;;;;;;;5085665;28;20016;-76
2023/02/02 04:44:26;;;;;;;3.63;0.87;;;;;;;;;;5085037;28;20099;-76
2023/02/02 04:46:52;;;;;;;1.67;0.73;;;;;;;;;;5073693;28;20019;-76
2023/02/02 04:49:17;;;;;;;4.17;0.93;;;;;;;;;;5090706;28;20467;-76
2023/02/02 04:51:42;;;;;;;5.93;0.53;;;;;;;;;;5091253;28;20020;-76
2023/02/02 04:54:08;;;;;;;1.85;0.75;;;;;;;;;;5094138;28;20459;-76
2023/02/02 04:56:33;;;;;;;6.17;1.17;;;;;;;;;;5094903;28;20024;-76
2023/02/02 04:58:59;;;;;;;2.27;0.67;;;;;;;;;;5093887;28;20155;-76
2023/02/02 05:01:29;;;;;;;2.42;0.80;;;;;;;;;;5090566;28;20043;-76
2023/02/02 05:03:54;;;;;;;3.60;0.90;;;;;;;;;;5080233;28;20103;-76
2023/02/02 05:06:19;;;;;;;5.50;1.10;;;;;;;;;;5093963;28;20107;-76
2023/02/02 05:08:46;;;;;;;5.40;1.13;;;;;;;;;;5093941;28;20020;-76
2023/02/02 05:11:16;;;;;;;3.13;1.00;;;;;;;;;;5093839;28;20016;-76
2023/02/02 05:13:51;;;;;;;4.87;1.07;;;;;;;;;;5093249;28;20020;-76
2023/02/02 05:16:17;;;;;;;5.47;1.05;;;;;;;;;;5093920;28;20020;-76
2023/02/02 05:18:42;;;;;;;3.47;1.00;;;;;;;;;;5093246;28;20394;-76
2023/02/02 05:21:08;;;;;;;2.80;0.63;;;;;;;;;;5093932;28;20016;-76
2023/02/02 05:23:33;;;;;;;5.23;1.23;;;;;;;;;;5088909;28;20023;-76
2023/02/02 05:25:58;;;;;;;4.22;1.23;;;;;;;;;;5093649;28;20048;-76
2023/02/02 05:28:24;;;;;;;3.83;0.73;;;;;;;;;;5093933;28;20018;-76
2023/02/02 05:30:49;;;;;;;5.87;0.90;;;;;;;;;;5081862;28;20366;-76
2023/02/02 05:33:17;;;;;;;4.83;0.77;;;;;;;;;;5093526;28;20012;-76
2023/02/02 05:35:43;;;;;;;3.53;0.90;;;;;;;;;;5093301;28;20008;-76
2023/02/02 05:38:08;;;;;;;6.00;1.02;;;;;;;;;;5091876;28;20111;-76
2023/02/02 05:40:34;;;;;;;2.67;0.80;;;;;;;;;;5093147;28;20088;-76
2023/02/02 05:42:59;;;;;;;2.60;0.82;;;;;;;;;;5084260;28;20016;-76
2023/02/02 05:45:27;;;;;;;6.83;1.20;;;;;;;;;;5072437;28;20100;-76
2023/02/02 05:47:53;;;;;;;3.03;0.67;;;;;;;;;;5092496;28;20088;-76
2023/02/02 05:50:19;;;;;;;3.42;0.75;;;;;;;;;;5093205;28;20016;-76
2023/02/02 05:52:45;;;;;;;3.23;1.20;;;;;;;;;;5092887;28;20028;-76
2023/02/02 05:55:10;;;;;;;9.80;1.58;;;;;;;;;;5093150;28;20016;-76
2023/02/02 05:57:35;;;;;;;2.33;0.80;;;;;;;;;;5093252;28;20023;-76
2023/02/02 06:00:01;;;;;;;4.40;0.80;;;;;;;;;;5092904;28;20022;-76
2023/02/02 06:02:26;;;;;;;3.23;0.90;;;;;;;;;;5077344;28;20017;-75
2023/02/02 06:04:51;;;;;;;6.93;0.87;;;;;;;;;;5088424;28;20027;-76
2023/02/02 06:07:16;;;;;;;8.87;1.30;;;;;;;;;;5091720;28;20439;-76
2023/02/02 06:09:41;;;;;;;1.23;0.52;;;;;;;;;;5092814;28;20024;-76
2023/02/02 06:12:07;;;;;;;8.85;1.05;;;;;;;;;;5092686;28;21116;-76
2023/02/02 06:14:32;;;;;;;5.70;1.15;;;;;;;;;;5092374;28;20046;-76
2023/02/02 06:16:58;;;;;;;7.15;0.85;;;;;;;;;;5092724;28;20113;-76
2023/02/02 06:19:23;;;;;;;3.47;1.03;;;;;;;;;;5084486;28;20054;-76
2023/02/02 06:21:48;;;;;;;2.53;0.52;;;;;;;;;;5087647;28;20389;-76
2023/02/02 06:24:13;;;;;;;7.07;1.03;;;;;;;;;;5092456;28;20020;-76
2023/02/02 06:26:39;;;;;;;3.40;0.90;;;;;;;;;;5091342;28;20028;-76
2023/02/02 06:29:04;;;;;;;5.77;0.90;;;;;;;;;;5092271;28;20020;-76
2023/02/02 06:31:30;;;;;;;9.10;1.90;;;;;;;;;;5092464;28;20020;-76
2023/02/02 06:33:56;;;;;;;6.93;0.70;;;;;;;;;;5092104;28;20081;-76
2023/02/02 06:36:21;;;;;;;4.82;1.10;;;;;;;;;;5091036;28;20051;-76
2023/02/02 06:38:47;;;;;;;3.33;1.13;;;;;;;;;;5085621;28;20108;-76
2023/02/02 06:41:12;;;;;;;5.33;0.73;;;;;;;;;;5092189;28;20111;-76
2023/02/02 06:43:38;;;;;;;4.05;0.70;;;;;;;;;;5092352;28;20028;-76
2023/02/02 06:46:03;;;;;;;1.85;0.77;;;;;;;;;;5070142;28;20028;-76
2023/02/02 06:48:28;;;;;;;2.92;0.77;;;;;;;;;;5078405;28;20024;-76
2023/02/02 06:50:56;;;;;;;2.47;0.60;;;;;;;;;;5074135;28;20040;-76
2023/02/02 06:53:22;;;;;;;1.35;0.90;;;;;;;;;;5075469;28;20025;-76
2023/02/02 06:55:57;;;;;;;3.03;0.80;;;;;;;;;;5067884;28;20529;-84
2023/02/02 06:58:22;;;;;;;5.63;0.77;;;;;;;;;;5071281;28;20106;-84
2023/02/02 07:00:47;;;;;;;8.63;1.60;;;;;;;;;;5076936;28;20104;-84
2023/02/02 07:03:13;;;;;;;2.70;0.93;;;;;;;;;;5070414;28;20066;-83
2023/02/02 07:05:39;;;;;;;4.57;0.53;;;;;;;;;;5091296;28;20020;-84
2023/02/02 07:08:04;;;;;;;8.73;1.00;;;;;;;;;;5079136;28;20024;-83
2023/02/02 07:10:29;;;;;;;4.30;0.60;;;;;;;;;;5063044;28;20089;-83
2023/02/02 07:12:54;;;;;;;2.77;0.83;;;;;;;;;;5086058;28;20539;-84
2023/02/02 07:15:20;;;;;;;3.00;0.80;;;;;;;;;;5087380;28;20514;-84
2023/02/02 07:17:45;;;;;;;9.57;1.03;;;;;;;;;;5074053;28;20707;-84
2023/02/02 07:20:10;;;;;;;4.20;0.80;;;;;;;;;;5070257;28;20028;-83
2023/02/02 07:22:39;;;;;;;6.17;0.67;;;;;;;;;;5064836;28;20016;-84
2023/02/02 07:25:05;;;;;;;2.60;0.70;;;;;;;;;;5065461;28;20062;-83
2023/02/02 07:27:30;;;;;;;4.97;1.00;;;;;;;;;;5068002;28;20097;-84
2023/02/02 07:29:55;;;;;;;2.47;0.73;;;;;;;;;;5062451;28;20556;-84
2023/02/02 07:32:20;;;;;;;2.90;1.10;;;;;;;;;;5075591;28;20016;-84
2023/02/02 07:34:45;;;;;;;6.90;2.20;;;;;;;;;;5090011;28;20020;-84
2023/02/02 07:37:11;;;;;;;3.50;0.83;;;;;;;;;;5089699;28;20012;-83
2023/02/02 07:39:36;;;;;;;3.13;0.80;;;;;;;;;;5061775;28;20101;-83
2023/02/02 07:42:01;;;;;;;2.30;0.88;;;;;;;;;;5077802;28;20101;-83
2023/02/02 07:44:26;;;;;;;8.20;1.37;;;;;;;;;;5085485;28;20522;-83
2023/02/02 07:46:52;;;;;;;1.73;0.77;;;;;;;;;;5075245;28;20034;-83
2023/02/02 07:49:17;;;;;;;7.50;0.93;;;;;;;;;;5070297;28;20019;-84
2023/02/02 07:51:42;;;;;;;3.50;0.90;;;;;;;;;;5078683;28;20050;-83
2023/02/02 07:54:08;;;;;;;6.75;0.82;;;;;;;;;;5075956;28;20091;-84
2023/02/02 07:56:33;;;;;;;3.10;0.70;;;;;;;;;;5076173;28;20019;-84
2023/02/02 07:58:58;;;;;;;2.07;0.77;;;;;;;;;;5066973;28;20047;-84
2023/02/02 08:01:25;;;;;;;1.03;0.40;;;;;;;;;;5071837;28;20039;-84
2023/02/02 08:03:50;;;;;;;3.58;0.63;;;;;;;;;;5076592;28;20093;-85
2023/02/02 08:06:20;;;;;;;3.78;0.98;;;;;;;;;;5075226;28;20016;-84
2023/02/02 08:08:45;;;;;;;2.83;0.60;;;;;;;;;;5085997;28;20066;-84
2023/02/02 08:11:12;;;;;;;3.23;0.90;;;;;;;;;;5089840;28;20409;-85
2023/02/02 08:13:37;;;;;;;4.47;1.27;;;;;;;;;;5086687;28;20025;-84
2023/02/02 08:16:03;;;;;;;3.03;0.70;;;;;;;;;;5069621;28;20019;-86
2023/02/02 08:18:28;;;;;;;6.60;0.90;;;;;;;;;;5084092;28;20047;-83
2023/02/02 08:20:56;;;;;;;3.85;1.10;;;;;;;;;;5090779;28;20080;-82
2023/02/02 08:23:22;;;;;;;9.53;1.53;;;;;;;;;;5090996;28;20023;-80
2023/02/02 08:25:51;;;;;;;3.67;0.93;;;;;;;;;;5082149;28;20491;-80
2023/02/02 08:28:16;;;;;;;3.77;1.03;;;;;;;;;;5087089;28;20036;-78
2023/02/02 08:30:42;;;;;;;3.38;0.85;;;;;;;;;;5088714;28;20305;-79
2023/02/02 08:33:07;;;;;;;2.08;0.82;;;;;;;;;;5085154;28;20020;-79
2023/02/02 08:35:32;;;;;;;4.90;1.30;;;;;;;;;;5093240;28;20047;-86
2023/02/02 08:37:57;;;;;;;4.88;1.08;;;;;;;;;;5081451;28;20044;-86
2023/02/02 08:40:24;;;;;;;4.77;1.00;;;;;;;;;;5066936;28;20134;-85
2023/02/02 08:42:51;;;;;;;6.70;1.13;;;;;;;;;;5073174;28;20321;-86
2023/02/02 08:45:17;;;;;;;2.70;0.82;;;;;;;;;;5065245;28;20317;-86
2023/02/02 08:47:42;;;;;;;6.83;0.93;;;;;;;;;;5074889;28;20130;-86
2023/02/02 08:50:07;;;;;;;5.03;1.10;;;;;;;;;;5093367;28;20020;-85
2023/02/02 08:52:33;;;;;;;3.60;0.98;;;;;;;;;;5093201;28;20016;-86
2023/02/02 08:54:58;;;;;;;4.43;0.90;;;;;;;;;;5093501;28;20016;-85
2023/02/02 08:57:23;;;;;;;4.40;0.80;;;;;;;;;;5093407;28;20019;-86
2023/02/02 08:59:49;;;;;;;2.65;0.80;;;;;;;;;;5092980;28;20055;-86
2023/02/02 09:02:15;;;;;;;2.43;0.50;;;;;;;;;;5073021;28;20031;-86
2023/02/02 09:04:44;;;;;;;3.88;1.02;;;;;;;;;;5072070;28;20491;-86
2023/02/02 09:07:09;;;;;;;5.33;1.33;;;;;;;;;;5094491;28;20022;-86
2023/02/02 09:09:34;;;;;;;2.43;0.90;;;;;;;;;;5085159;28;20032;-86
2023/02/02 09:11:59;;;;;;;5.57;1.17;;;;;;;;;;5090086;28;20021;-86
2023/02/02 09:14:24;;;;;;;2.35;0.85;;;;;;;;;;5082842;28;20035;-86
2023/02/02 09:16:49;;;;;;;4.68;1.00;;;;;;;;;;5087801;28;20035;-86
2023/02/02 09:19:15;;;;;;;5.22;0.88;;;;;;;;;;5092412;28;20684;-86
2023/02/02 09:21:41;;;;;;;3.97;0.88;;;;;;;;;;5092621;28;20032;-85
2023/02/02 09:24:07;;;;;;;4.30;0.80;;;;;;;;;;5092687;28;20785;-86
2023/02/02 09:26:32;;;;;;;1.93;0.93;;;;;;;;;;5092089;28;20050;-85
2023/02/02 09:29:01;;;;;;;6.93;1.10;;;;;;;;;;5074164;28;20021;-85
2023/02/02 09:31:26;;;;;;;2.92;1.23;;;;;;;;;;5076539;28;20375;-85
2023/02/02 09:33:52;;;;;;;2.90;1.10;;;;;;;;;;5088961;28;20024;-85
2023/02/02 09:36:19;;;;;;;6.70;1.07;;;;;;;;;;5083728;28;20482;-86
2023/02/02 09:38:44;;;;;;;1.40;0.73;;;;;;;;;;5083991;28;20016;-86
2023/02/02 09:41:13;;;;;;;2.97;1.20;;;;;;;;;;5084757;28;20031;-86
2023/02/02 09:43:52;;;;;;;3.40;1.02;;;;;;;;;;5076935;28;20507;-85
2023/02/02 09:46:28;;;;;;;3.92;0.90;;;;;;;;;;5066890;28;20020;-86
2023/02/02 09:48:58;;;;;;;3.05;0.90;;;;;;;;;;5091347;28;20028;-85
2023/02/02 09:51:27;;;;;;;2.63;1.00;;;;;;;;;;5071847;28;20027;-85
2023/02/02 09:53:55;;;;;;;2.42;1.02;;;;;;;;;;5074042;28;20024;-87
2023/02/02 09:56:37;;;;;;;2.05;0.90;;;;;;;;;;5085543;28;20016;-87
2023/02/02 09:59:04;;;;;;;9.68;1.20;;;;;;;;;;5085571;28;20601;-78
2023/02/02 10:01:41;;;;;;;4.10;1.33;;;;;;;;;;5085644;28;20029;-77
2023/02/02 10:04:25;;;;;;;3.43;1.20;;;;;;;;;;5071961;28;20052;-77
2023/02/02 10:06:52;;;;;;;5.28;1.30;;;;;;;;;;5074386;28;20040;-77
2023/02/02 10:09:18;;;;;;;0.40;0.30;;;;;;;;;;5063034;28;20020;-80
2023/02/02 10:11:47;;;;;;;4.03;1.27;;;;;;;;;;5062622;28;20376;-80
2023/02/02 10:14:31;;;;;;;2.88;0.77;;;;;;;;;;5079505;28;20028;-80
2023/02/02 10:16:58;;;;;;;5.68;1.00;;;;;;;;;;5092905;28;20016;-80
2023/02/02 10:19:27;;;;;;;4.20;0.73;;;;;;;;;;5089016;28;20031;-80
2023/02/02 10:21:58;;;;;;;4.45;1.10;;;;;;;;;;5092399;28;20040;-85
2023/02/02 10:24:25;;;;;;;2.58;0.70;;;;;;;;;;5090913;28;20065;-83
2023/02/02 10:26:55;;;;;;;5.50;0.80;;;;;;;;;;5090853;28;20035;-84
2023/02/02 10:29:23;;;;;;;2.33;0.82;;;;;;;;;;5092086;28;20020;-83
2023/02/02 10:31:54;;;;;;;4.93;1.80;;;;;;;;;;5082598;28;20482;-83
2023/02/02 10:34:19;;;;;;;1.95;0.75;;;;;;;;;;5072947;28;20062;-83
2023/02/02 10:37:03;;;;;;;2.40;0.98;;;;;;;;;;5076322;28;20032;-83
2023/02/02 10:39:40;;;;;;;3.47;0.70;;;;;;;;;;5063842;28;20018;-84
2023/02/02 10:42:11;;;;;;;4.57;1.00;;;;;;;;;;5064458;28;20043;-83
2023/02/02 10:44:46;;;;;;;7.93;1.13;;;;;;;;;;5057260;28;20025;-84
2023/02/02 10:47:14;;;;;;;1.90;0.68;;;;;;;;;;5084726;28;20020;-83
2023/02/02 10:49:39;;;;;;;5.22;0.98;;;;;;;;;;5077070;28;20041;-83
2023/02/02 10:52:12;;;;;;;4.05;1.10;;;;;;;;;;5071973;28;20058;-84
2023/02/02 10:54:46;;;;;;;2.67;0.38;;;;;;;;;;5083589;28;20427;-84
2023/02/02 10:57:15;;;;;;;1.95;0.80;;;;;;;;;;5087889;28;21484;-83
2023/02/02 10:59:46;;;;;;;4.65;1.23;;;;;;;;;;5073553;28;20032;-83
2023/02/02 11:02:11;;;;;;;3.95;0.80;;;;;;;;;;5090606;28;20024;-84
2023/02/02 11:07:20;;;;;;;0.95;0.52;;;;;;;;;;5082649;28;20442;-84
2023/02/02 11:09:46;;;;;;;4.40;0.73;;;;;;;;;;5065889;28;20021;-84
2023/02/02 11:12:29;;;;;;;3.78;0.93;;;;;;;;;;5069151;28;20017;-84
2023/02/02 11:15:04;;;;;;;1.63;0.63;;;;;;;;;;5080196;28;20522;-84
2023/02/02 11:17:29;;;;;;;6.85;0.90;;;;;;;;;;5090172;28;20119;-84
2023/02/02 11:19:57;;;;;;;3.50;1.00;;;;;;;;;;5066905;28;20035;-84
2023/02/02 11:22:34;;;;;;;9.10;1.30;;;;;;;;;;5068592;28;20150;-84
2023/02/02 11:25:00;;;;;;;4.00;0.80;;;;;;;;;;5072345;28;20036;-84
2023/02/02 11:27:31;;;;;;;2.22;0.77;;;;;;;;;;5080884;28;20134;-84
2023/02/02 11:30:00;;;;;;;2.30;0.95;;;;;;;;;;5079075;28;20107;-84
2023/02/02 11:32:27;;;;;;;5.05;1.00;;;;;;;;;;5074211;28;20015;-84
2023/02/02 11:35:11;;;;;;;4.55;1.33;;;;;;;;;;5069901;28;20107;-84
2023/02/02 11:37:37;;;;;;;5.93;1.65;;;;;;;;;;5065886;28;20033;-84
2023/02/02 11:40:32;;;;;;;5.40;1.10;;;;;;;;;;5068253;28;20103;-84
2023/02/02 11:42:59;;;;;;;1.88;0.70;;;;;;;;;;5061566;28;20032;-84
2023/02/02 11:45:35;;;;;;;2.35;0.70;;;;;;;;;;5069842;28;20020;-84
2023/02/02 11:48:03;;;;;;;4.63;1.15;;;;;;;;;;5065309;28;20171;-84
2023/02/02 11:50:28;;;;;;;7.10;0.70;;;;;;;;;;5066882;28;20353;-84
2023/02/02 11:52:54;;;;;;;5.78;1.30;;;;;;;;;;5069228;28;20019;-84
2023/02/02 11:55:25;;;;;;;3.15;0.80;;;;;;;;;;5069321;28;20099;-84
2023/02/02 11:58:16;;;;;;;2.33;0.90;;;;;;;;;;5071147;28;20436;-84
2023/02/02 12:00:45;;;;;;;5.70;1.23;;;;;;;;;;5064734;28;20483;-84
2023/02/02 12:03:22;;;;;;;1.92;0.85;;;;;;;;;;5069219;28;20046;-84
2023/02/02 12:05:48;;;;;;;3.45;1.13;;;;;;;;;;5082630;28;20106;-84
2023/02/02 12:08:14;;;;;;;2.47;1.08;;;;;;;;;;5066167;28;20183;-84
2023/02/02 12:10:49;;;;;;;3.83;0.75;;;;;;;;;;5071934;28;20519;-84
2023/02/02 12:13:20;;;;;;;1.27;0.82;;;;;;;;;;5064895;28;20012;-84
2023/02/02 12:15:50;;;;;;;2.83;0.93;;;;;;;;;;5071940;28;20111;-84
2023/02/02 12:18:33;;;;;;;3.15;1.20;;;;;;;;;;5069624;28;20086;-84
2023/02/02 12:20:59;;;;;;;3.10;1.20;;;;;;;;;;5073004;28;20020;-84
2023/02/02 12:23:30;;;;;;;5.22;1.50;;;;;;;;;;5074790;28;20023;-84
2023/02/02 12:26:04;;;;;;;4.63;1.27;;;;;;;;;;5074597;28;20023;-84
2023/02/02 12:28:37;;;;;;;3.97;1.45;;;;;;;;;;5074343;28;20050;-84
2023/02/02 12:31:17;;;;;;;2.67;0.93;;;;;;;;;;5070048;28;20115;-84
2023/02/02 12:33:51;;;;;;;2.53;1.05;;;;;;;;;;5073581;28;20050;-84
2023/02/02 12:36:16;;;;;;;5.75;1.23;;;;;;;;;;5073155;28;20032;-85
2023/02/02 12:39:00;;;;;;;5.50;1.38;;;;;;;;;;5072108;28;20112;-82
2023/02/02 12:41:38;;;;;;;1.95;0.82;;;;;;;;;;5061840;28;20451;-84
2023/02/02 12:44:29;;;;;;;3.03;0.70;;;;;;;;;;5073654;28;20043;-84
2023/02/02 12:47:16;;;;;;;2.72;0.90;;;;;;;;;;5066330;28;20171;-84
2023/02/02 12:49:44;;;;;;;2.40;0.90;;;;;;;;;;5073603;28;20020;-85
2023/02/02 12:52:25;;;;;;;5.43;1.00;;;;;;;;;;5072611;28;20117;-84
2023/02/02 12:54:53;;;;;;;3.05;1.40;;;;;;;;;;5073557;28;20024;-84
2023/02/02 12:57:26;;;;;;;3.25;1.50;;;;;;;;;;5072827;28;20043;-84
2023/02/02 13:00:06;;;;;;;4.93;1.15;;;;;;;;;;5075341;28;20107;-84
2023/02/02 13:02:50;;;;;;;5.28;1.67;;;;;;;;;;5072269;28;20028;-84
2023/02/02 13:05:15;;;;;;;2.80;1.60;;;;;;;;;;5069883;28;20020;-84
2023/02/02 13:07:43;;;;;;;2.88;1.23;;;;;;;;;;5084843;28;20359;-84
2023/02/02 13:10:20;;;;;;;3.58;1.25;;;;;;;;;;5093734;28;20021;-84
2023/02/02 13:12:54;;;;;;;3.72;1.20;;;;;;;;;;5091520;28;20054;-84
2023/02/02 13:15:20;;;;;;;2.65;1.70;;;;;;;;;;5094017;28;20012;-84
2023/02/02 13:17:53;;;;;;;4.05;1.42;;;;;;;;;;5093628;28;20486;-84
2023/02/02 13:20:23;;;;;;;2.20;1.00;;;;;;;;;;5093241;28;20462;-84
2023/02/02 13:22:50;;;;;;;4.88;2.38;;;;;;;;;;5093972;28;20032;-84
2023/02/02 13:25:20;;;;;;;5.30;1.70;;;;;;;;;;5075917;28;20478;-84
2023/02/02 13:27:45;;;;;;;2.53;1.30;;;;;;;;;;5093953;28;20024;-84
2023/02/02 13:30:29;;;;;;;1.98;1.02;;;;;;;;;;5092290;28;20026;-84
2023/02/02 13:32:57;;;;;;;1.60;1.20;;;;;;;;;;5092428;28;20020;-84
2023/02/02 13:35:25;;;;;;;5.40;1.60;;;;;;;;;;5093511;28;20049;-84
2023/02/02 13:37:52;;;;;;;6.38;2.15;;;;;;;;;;5093967;28;20475;-84
2023/02/02 13:40:23;;;;;;;4.85;1.92;;;;;;;;;;5093780;28;20095;-84
2023/02/02 13:43:07;;;;;;;4.13;1.67;;;;;;;;;;5084901;28;20047;-84
2023/02/02 13:45:35;;;;;;;3.83;1.85;;;;;;;;;;5071364;28;20021;-84
2023/02/02 13:48:14;;;;;;;2.72;1.38;;;;;;;;;;5093367;28;20024;-84
2023/02/02 13:50:46;;;;;;;3.08;1.40;;;;;;;;;;5091888;28;20032;-83
2023/02/02 13:53:33;;;;;;;3.95;1.25;;;;;;;;;;5093507;28;20097;-84
2023/02/02 13:56:31;;;;;;;3.47;1.90;;;;;;;;;;5092872;28;20106;-84
2023/02/02 13:58:59;;;;;;;3.15;1.35;;;;;;;;;;5069860;28;20030;-84
2023/02/02 14:01:24;;;;;;;3.10;1.70;;;;;;;;;;5078008;28;20023;-84
2023/02/02 14:03:56;;;;;;;2.17;1.40;;;;;;;;;;5077660;28;20020;-84
2023/02/02 14:06:23;;;;;;;2.70;1.45;;;;;;;;;;5089201;28;20491;-84
2023/02/02 14:08:48;;;;;;;2.47;1.13;;;;;;;;;;5074479;28;20487;-84
2023/02/02 14:11:17;;;;;;;3.45;2.08;;;;;;;;;;5085009;28;20017;-84
2023/02/02 14:16:31;;;;;;;6.65;1.52;;;;;;;;;;5077516;28;20105;-85
2023/02/02 14:18:57;;;;;;;4.60;1.90;;;;;;;;;;5092147;28;20070;-84
2023/02/02 14:21:35;;;;;;;3.15;2.03;;;;;;;;;;5093055;28;20023;-84
2023/02/02 14:24:04;;;;;;;3.13;1.80;;;;;;;;;;5092752;28;20019;-84
2023/02/02 14:26:47;;;;;;;5.18;1.55;;;;;;;;;;5091415;28;20024;-84
2023/02/02 14:29:30;;;;;;;3.90;1.67;;;;;;;;;;5092612;28;20149;-84
2023/02/02 14:31:58;;;;;;;3.10;1.73;;;;;;;;;;5092945;28;20143;-84
2023/02/02 14:34:28;;;;;;;3.10;1.70;;;;;;;;;;5089032;28;20024;-84
2023/02/02 14:37:12;;;;;;;2.08;1.20;;;;;;;;;;5077165;28;20024;-84
2023/02/02 14:39:50;;;;;;;4.07;1.20;;;;;;;;;;5066473;28;20028;-85
2023/02/02 14:45:26;;;;;;;4.15;1.73;;;;;;;;;;5071816;28;20511;-84
2023/02/02 14:47:56;;;;;;;3.10;1.42;;;;;;;;;;5091523;28;20024;-84
2023/02/02 14:50:23;;;;;;;2.00;1.23;;;;;;;;;;5090599;28;20040;-84
2023/02/02 14:53:09;;;;;;;2.40;1.52;;;;;;;;;;5092202;28;20099;-84
2023/02/02 14:55:37;;;;;;;3.97;2.08;;;;;;;;;;5079837;28;20462;-84
2023/02/02 14:58:03;;;;;;;5.40;2.03;;;;;;;;;;5090692;28;20463;-84
2023/02/02 15:00:31;;;;;;;4.15;1.80;;;;;;;;;;5078830;28;20066;-84
2023/02/02 15:03:16;;;;;;;3.63;1.73;;;;;;;;;;5083437;28;20035;-84
2023/02/02 15:05:42;;;;;;;3.53;2.03;;;;;;;;;;5091581;28;20036;-84
2023/02/02 15:08:37;;;;;;;2.72;1.70;;;;;;;;;;5077017;28;20033;-84
2023/02/02 15:11:26;;;;;;;5.70;2.30;;;;;;;;;;5068039;28;20035;-84